sim
Sign-in with your pilot id or email,
or register
Callsign
Passwort

Schedule Details

Flight Number: DLH1677 (2)
Departure: Budapest Ferenc Liszt International Airport (LHBP) at 12:40
Arrival: Munich Airport (EDDM) at 13:55
Route: Lufthansa Passenger Schedule. Enter filed route here before submitting Pirep.

Weather Information
Getting current METAR information for LHBP 281130Z 06006KT 020V090 CAVOK 18/11 Q1008 NOSIG
Getting current METAR information for EDDM 281150Z 27004KT 240V300 9999 FEW010 BKN040 10/07 Q1012 NOSIG

Schedule Frequency

Route Map